createdAt,value
2023-03-19T00:00:02.056Z,72.59
2023-03-19T00:02:32.837Z,72.60
2023-03-19T00:05:03.517Z,72.79
2023-03-19T00:07:34.108Z,72.64
2023-03-19T00:10:07.724Z,72.55
2023-03-19T00:12:38.517Z,72.85
2023-03-19T00:15:14.781Z,72.70
2023-03-19T00:17:45.808Z,73.11
2023-03-19T00:20:18.438Z,72.92
2023-03-19T00:22:49.087Z,72.95
2023-03-19T00:25:22.192Z,72.79
2023-03-19T00:27:54.410Z,72.71
2023-03-19T00:30:25.700Z,72.63
2023-03-19T00:32:56.477Z,73.02
2023-03-19T00:35:27.155Z,72.98
2023-03-19T00:37:58.093Z,73.18
2023-03-19T00:40:31.476Z,73.33
2023-03-19T00:43:02.176Z,73.09
2023-03-19T00:45:33.272Z,73.07
2023-03-19T00:48:03.898Z,73.07
2023-03-19T00:50:34.549Z,73.19
2023-03-19T00:53:05.119Z,73.31
2023-03-19T00:55:38.472Z,73.59
2023-03-19T00:58:10.325Z,73.53
2023-03-19T01:00:42.142Z,73.84
2023-03-19T01:03:13.389Z,73.62
2023-03-19T01:05:44.169Z,74.04
2023-03-19T01:08:15.406Z,74.18
2023-03-19T01:10:50.081Z,74.14
2023-03-19T01:13:20.765Z,73.97
2023-03-19T01:15:56.187Z,74.23
2023-03-19T01:18:27.201Z,74.12
2023-03-19T01:20:58.337Z,74.55
2023-03-19T01:23:29.819Z,74.44
2023-03-19T01:26:03.161Z,74.23
2023-03-19T01:28:34.510Z,74.52
2023-03-19T01:31:09.002Z,74.52
2023-03-19T01:33:59.783Z,74.48
2023-03-19T01:36:37.861Z,74.66
2023-03-19T01:39:11.801Z,74.81
2023-03-19T01:41:45.738Z,74.63
2023-03-19T01:44:38.492Z,74.74
2023-03-19T01:47:34.102Z,74.85
2023-03-19T01:50:32.021Z,74.52
2023-03-19T01:53:22.695Z,74.77
2023-03-19T01:56:00.011Z,74.46
2023-03-19T01:58:47.114Z,74.77
2023-03-19T02:01:37.773Z,74.55
2023-03-19T02:04:09.093Z,74.63
2023-03-19T02:06:42.991Z,74.74
2023-03-19T02:09:14.234Z,74.58
2023-03-19T02:11:45.210Z,74.57
2023-03-19T02:14:18.338Z,74.75
2023-03-19T02:16:49.203Z,74.79
2023-03-19T02:19:25.245Z,74.94
2023-03-19T02:21:56.729Z,74.99
2023-03-19T02:24:32.956Z,75.01
2023-03-19T02:27:11.857Z,75.16
2023-03-19T02:29:48.375Z,75.20
2023-03-19T02:32:20.048Z,74.87
2023-03-19T02:34:50.999Z,75.10
2023-03-19T02:37:25.514Z,74.91
2023-03-19T02:40:01.747Z,74.89
2023-03-19T02:42:34.829Z,74.70
2023-03-19T02:45:06.029Z,74.61
2023-03-19T02:47:36.541Z,74.80
2023-03-19T02:50:07.964Z,74.76
2023-03-19T02:52:38.453Z,74.98
2023-03-19T02:55:10.226Z,75.01
2023-03-19T02:57:43.349Z,75.06
2023-03-19T03:00:17.328Z,74.91
2023-03-19T03:02:47.978Z,75.24
2023-03-19T03:05:18.780Z,75.00
2023-03-19T03:07:50.699Z,75.18
2023-03-19T03:10:21.649Z,75.10
2023-03-19T03:12:55.036Z,74.83
2023-03-19T03:15:25.687Z,74.97
2023-03-19T03:17:57.022Z,74.94
2023-03-19T03:20:27.865Z,74.93
2023-03-19T03:22:58.719Z,74.85
2023-03-19T03:25:29.167Z,74.89
2023-03-19T03:28:02.746Z,74.86
2023-03-19T03:30:33.705Z,74.85
2023-03-19T03:33:04.617Z,74.88
2023-03-19T03:35:35.339Z,74.74
2023-03-19T03:38:06.788Z,74.62
2023-03-19T03:40:37.679Z,74.80
2023-03-19T03:43:11.182Z,74.56
2023-03-19T03:45:41.940Z,74.73
2023-03-19T03:48:12.966Z,74.69
2023-03-19T03:50:44.080Z,74.76
2023-03-19T03:53:18.960Z,74.77
2023-03-19T03:55:49.835Z,74.86
2023-03-19T03:58:27.133Z,74.88
2023-03-19T04:00:58.020Z,74.81
2023-03-19T04:03:28.875Z,74.76
2023-03-19T04:05:59.450Z,75.02
2023-03-19T04:08:30.381Z,74.79
2023-03-19T04:11:01.196Z,74.85
2023-03-19T04:13:36.900Z,74.99
2023-03-19T04:16:11.146Z,75.15
2023-03-19T04:18:41.724Z,75.12
2023-03-19T04:21:12.552Z,75.02
2023-03-19T04:23:43.292Z,75.16
2023-03-19T04:26:14.042Z,75.22
2023-03-19T04:28:47.451Z,75.12
2023-03-19T04:31:18.325Z,75.19
2023-03-19T04:33:49.488Z,75.07
2023-03-19T04:36:20.438Z,75.29
2023-03-19T04:38:51.627Z,75.37
2023-03-19T04:41:23.301Z,74.96
2023-03-19T04:44:15.421Z,75.09
2023-03-19T04:46:47.334Z,74.82
2023-03-19T04:49:20.942Z,75.00
2023-03-19T04:51:52.446Z,74.99
2023-03-19T04:54:23.667Z,75.03
2023-03-19T04:56:54.781Z,74.90
2023-03-19T04:59:30.670Z,74.59
2023-03-19T05:02:01.793Z,74.62
2023-03-19T05:04:33.042Z,74.44
2023-03-19T05:07:09.632Z,74.35
2023-03-19T05:09:42.199Z,74.25
2023-03-19T05:12:14.222Z,74.44
2023-03-19T05:14:52.353Z,74.48
2023-03-19T05:17:33.579Z,74.32
2023-03-19T05:20:25.382Z,74.31
2023-03-19T05:23:02.916Z,74.03
2023-03-19T05:25:41.932Z,73.93
2023-03-19T05:28:15.067Z,74.06
2023-03-19T05:30:49.341Z,73.74
2023-03-19T05:33:40.496Z,73.63
2023-03-19T05:36:12.718Z,73.69
2023-03-19T05:38:53.447Z,73.47
2023-03-19T05:41:30.238Z,73.66
2023-03-19T05:44:05.646Z,73.47
2023-03-19T05:47:13.105Z,73.51
2023-03-19T05:49:50.104Z,73.70
2023-03-19T05:52:21.425Z,73.14
2023-03-19T05:54:53.107Z,73.24
2023-03-19T05:57:35.878Z,72.88
2023-03-19T06:00:28.676Z,72.96
2023-03-19T06:03:01.983Z,72.79
2023-03-19T06:05:42.710Z,72.67
2023-03-19T06:08:28.856Z,72.80
2023-03-19T06:11:05.209Z,72.65
2023-03-19T06:13:37.549Z,72.60
2023-03-19T06:16:11.743Z,72.49
2023-03-19T06:18:48.544Z,72.40
2023-03-19T06:21:20.941Z,72.28
2023-03-19T06:23:51.753Z,72.43
2023-03-19T06:26:28.579Z,72.29
2023-03-19T06:29:01.798Z,72.18
2023-03-19T06:31:32.412Z,72.62
2023-03-19T06:34:15.849Z,72.57
2023-03-19T06:36:47.039Z,72.56
2023-03-19T06:39:20.177Z,72.65
2023-03-19T06:41:50.716Z,72.71
2023-03-19T06:44:25.265Z,72.65
2023-03-19T06:46:56.088Z,72.94
2023-03-19T06:49:30.042Z,72.88
2023-03-19T06:52:00.699Z,72.80
2023-03-19T06:54:31.386Z,72.34
2023-03-19T06:57:02.113Z,72.37
2023-03-19T06:59:32.723Z,72.28
2023-03-19T07:02:03.326Z,72.13
2023-03-19T07:04:36.620Z,71.72
2023-03-19T07:07:07.278Z,71.68
2023-03-19T07:09:37.720Z,71.85
2023-03-19T07:12:08.872Z,71.80
2023-03-19T07:14:39.442Z,71.81
2023-03-19T07:17:10.695Z,71.73
2023-03-19T07:19:44.084Z,71.96
2023-03-19T07:22:15.002Z,72.02
2023-03-19T07:24:45.821Z,72.22
2023-03-19T07:27:16.596Z,72.07
2023-03-19T07:29:47.152Z,72.00
2023-03-19T07:32:18.002Z,71.99
2023-03-19T07:34:51.898Z,72.08
2023-03-19T07:37:22.682Z,72.11
2023-03-19T07:39:53.804Z,71.99
2023-03-19T07:42:24.821Z,72.13
2023-03-19T07:44:55.532Z,72.17
2023-03-19T07:47:29.240Z,72.03
2023-03-19T07:50:02.764Z,71.80
2023-03-19T07:52:33.210Z,71.93
2023-03-19T07:55:04.027Z,71.62
2023-03-19T07:57:34.536Z,71.58
2023-03-19T08:00:05.324Z,71.53
2023-03-19T08:02:44.165Z,71.58
2023-03-19T08:05:17.686Z,71.52
2023-03-19T08:07:49.562Z,71.54
2023-03-19T08:10:20.511Z,71.55
2023-03-19T08:12:51.084Z,71.40
2023-03-19T08:15:21.768Z,70.97
2023-03-19T08:17:52.382Z,70.56
2023-03-19T08:20:25.885Z,70.18
2023-03-19T08:22:56.537Z,69.92
2023-03-19T08:25:27.672Z,69.78
2023-03-19T08:27:58.200Z,69.95
2023-03-19T08:30:28.984Z,69.66
2023-03-19T08:33:00.158Z,69.78
2023-03-19T08:35:33.684Z,69.97
2023-03-19T08:38:04.214Z,70.15
2023-03-19T08:40:35.052Z,70.24
2023-03-19T08:43:06.833Z,70.46
2023-03-19T08:45:37.336Z,70.73
2023-03-19T08:48:08.371Z,70.99
2023-03-19T08:50:41.904Z,70.92
2023-03-19T08:53:12.321Z,70.74
2023-03-19T08:55:44.056Z,70.67
2023-03-19T08:58:14.693Z,70.36
2023-03-19T09:00:45.080Z,70.41
2023-03-19T09:03:15.836Z,70.29
2023-03-19T09:05:49.733Z,70.02
2023-03-19T09:08:20.502Z,70.26
2023-03-19T09:10:51.595Z,70.22
2023-03-19T09:13:22.261Z,69.63
2023-03-19T09:15:53.511Z,69.17
2023-03-19T09:18:24.912Z,68.80
2023-03-19T09:20:58.284Z,68.26
2023-03-19T09:23:29.113Z,67.18
2023-03-19T09:25:59.741Z,66.99
2023-03-19T09:28:30.155Z,67.76
2023-03-19T09:31:07.061Z,68.56
2023-03-19T09:33:37.614Z,68.55
2023-03-19T09:36:11.585Z,68.10
2023-03-19T09:38:42.168Z,67.48
2023-03-19T09:41:20.968Z,66.87
2023-03-19T09:44:03.164Z,66.77
2023-03-19T09:46:40.638Z,66.89
2023-03-19T09:49:23.987Z,66.70
2023-03-19T09:51:59.846Z,66.80
2023-03-19T09:54:34.078Z,66.90
2023-03-19T09:57:04.761Z,66.85
2023-03-19T09:59:36.082Z,65.94
2023-03-19T10:02:31.928Z,65.86
2023-03-19T10:05:13.438Z,66.35
2023-03-19T10:08:11.379Z,66.27
2023-03-19T10:10:51.891Z,66.99
2023-03-19T10:13:33.313Z,67.37
2023-03-19T10:16:05.787Z,67.32
2023-03-19T10:18:39.688Z,67.45
2023-03-19T10:21:18.001Z,67.46
2023-03-19T10:23:56.220Z,67.86
2023-03-19T10:26:34.601Z,67.29
2023-03-19T10:29:11.245Z,67.21
2023-03-19T10:31:47.249Z,66.97
2023-03-19T10:34:33.087Z,67.05
2023-03-19T10:37:05.959Z,66.97
2023-03-19T10:39:42.542Z,66.81
2023-03-19T10:42:34.810Z,67.11
2023-03-19T10:45:13.131Z,67.08
2023-03-19T10:47:46.241Z,67.50
2023-03-19T10:50:22.091Z,67.35
2023-03-19T10:53:08.648Z,67.22
2023-03-19T10:55:51.206Z,67.12
2023-03-19T10:58:29.041Z,66.95
2023-03-19T11:01:02.399Z,67.26
2023-03-19T11:03:35.310Z,66.81
2023-03-19T11:06:20.096Z,66.80
2023-03-19T11:08:58.119Z,66.13
2023-03-19T11:11:48.538Z,65.77
2023-03-19T11:14:23.685Z,65.79
2023-03-19T11:17:03.448Z,65.71
2023-03-19T11:19:37.190Z,65.77
2023-03-19T11:22:21.148Z,65.67
2023-03-19T11:24:54.680Z,64.83
2023-03-19T11:27:36.077Z,64.30
2023-03-19T11:30:16.701Z,64.72
2023-03-19T11:33:09.162Z,64.67
2023-03-19T11:35:44.950Z,65.24
2023-03-19T11:38:22.245Z,64.99
2023-03-19T11:41:02.231Z,64.78
2023-03-19T11:43:49.915Z,64.90
2023-03-19T11:46:39.124Z,64.93
2023-03-19T11:49:34.746Z,64.86
2023-03-19T11:52:15.859Z,64.68
2023-03-19T11:54:55.454Z,64.91
2023-03-19T11:57:35.582Z,64.12
2023-03-19T12:00:25.994Z,63.21
2023-03-19T12:03:11.768Z,63.42
2023-03-19T12:05:52.807Z,63.58
2023-03-19T12:08:34.810Z,63.13
2023-03-19T12:11:19.370Z,63.16
2023-03-19T12:14:05.061Z,62.92
2023-03-19T12:16:55.532Z,63.05
2023-03-19T12:19:46.159Z,63.39
2023-03-19T12:22:27.379Z,64.21
2023-03-19T12:25:19.449Z,64.04
2023-03-19T12:27:57.421Z,63.75
2023-03-19T12:30:37.189Z,63.91
2023-03-19T12:33:27.331Z,63.79
2023-03-19T12:36:02.174Z,64.28
2023-03-19T12:38:39.348Z,64.04
2023-03-19T12:41:14.455Z,63.69
2023-03-19T12:43:52.241Z,64.20
2023-03-19T12:46:30.078Z,64.59
2023-03-19T12:49:09.279Z,64.26
2023-03-19T12:51:43.332Z,64.59
2023-03-19T12:54:17.666Z,64.83
2023-03-19T12:56:56.007Z,65.20
2023-03-19T12:59:35.705Z,65.46
2023-03-19T13:02:19.285Z,65.53
2023-03-19T13:04:58.157Z,65.74
2023-03-19T13:07:34.359Z,65.69
2023-03-19T13:10:10.004Z,65.50
2023-03-19T13:12:41.994Z,65.88
2023-03-19T13:15:17.367Z,65.92
2023-03-19T13:17:59.186Z,66.29
2023-03-19T13:20:48.504Z,65.75
2023-03-19T13:23:25.103Z,66.11
2023-03-19T13:25:59.631Z,66.40
2023-03-19T13:28:33.632Z,66.16
2023-03-19T13:31:07.162Z,66.19
2023-03-19T13:33:40.300Z,66.11
2023-03-19T13:36:17.445Z,66.51
2023-03-19T13:38:51.788Z,66.46
2023-03-19T13:41:52.533Z,66.16
2023-03-19T13:44:38.984Z,66.13
2023-03-19T13:47:42.526Z,65.55
2023-03-19T13:50:52.837Z,65.23
2023-03-19T13:53:37.960Z,65.42
2023-03-19T13:56:28.633Z,65.56
2023-03-19T13:59:27.982Z,65.74
2023-03-19T14:01:58.696Z,65.89
2023-03-19T14:04:31.375Z,66.10
2023-03-19T14:07:14.220Z,65.96
2023-03-19T14:09:49.616Z,65.71
2023-03-19T14:12:34.932Z,65.34
2023-03-19T14:15:18.137Z,65.32
2023-03-19T14:17:58.563Z,65.51
2023-03-19T14:20:37.575Z,65.60
2023-03-19T14:23:39.026Z,65.33
2023-03-19T14:26:23.196Z,65.67
2023-03-19T14:29:00.469Z,65.61
2023-03-19T14:31:44.442Z,65.09
2023-03-19T14:34:23.608Z,65.44
2023-03-19T14:37:01.470Z,65.86
2023-03-19T14:39:35.019Z,65.80
2023-03-19T14:42:11.558Z,66.27
2023-03-19T14:45:23.736Z,66.11
2023-03-19T14:48:08.893Z,65.92
2023-03-19T14:51:03.888Z,65.91
2023-03-19T14:53:42.419Z,66.08
2023-03-19T14:56:17.807Z,66.08
2023-03-19T14:58:56.996Z,66.26
2023-03-19T15:01:29.697Z,66.71
2023-03-19T15:04:03.784Z,66.91
2023-03-19T15:06:36.093Z,64.69
2023-03-19T15:09:10.495Z,67.15
2023-03-19T15:12:04.518Z,66.87
2023-03-19T15:14:51.793Z,66.84
2023-03-19T15:17:27.149Z,66.96
2023-03-19T15:19:59.323Z,66.56
2023-03-19T15:22:33.162Z,66.39
2023-03-19T15:25:08.996Z,66.45
2023-03-19T15:27:40.217Z,66.17
2023-03-19T15:30:29.264Z,66.02
2023-03-19T15:33:11.958Z,65.72
2023-03-19T15:35:44.238Z,65.74
2023-03-19T15:38:20.190Z,65.53
2023-03-19T15:40:51.772Z,65.66
2023-03-19T15:43:23.590Z,65.76
2023-03-19T15:45:58.289Z,65.80
2023-03-19T15:48:37.947Z,65.26
2023-03-19T15:51:11.964Z,65.34
2023-03-19T15:53:43.074Z,65.70
2023-03-19T15:56:17.777Z,65.81
2023-03-19T15:58:53.299Z,65.74
2023-03-19T16:01:27.221Z,66.00
2023-03-19T16:04:02.400Z,66.21
2023-03-19T16:06:35.574Z,66.39
2023-03-19T16:09:24.784Z,66.17
2023-03-19T16:11:57.202Z,66.25
2023-03-19T16:14:30.468Z,66.30
2023-03-19T16:17:14.705Z,66.05
2023-03-19T16:19:56.175Z,65.97
2023-03-19T16:22:31.245Z,66.42
2023-03-19T16:25:06.948Z,66.32
2023-03-19T16:27:40.288Z,66.37
2023-03-19T16:30:22.555Z,66.44
2023-03-19T16:33:04.567Z,66.49
2023-03-19T16:35:37.964Z,66.67
2023-03-19T16:38:16.540Z,66.83
2023-03-19T16:40:49.191Z,66.96
2023-03-19T16:43:22.511Z,66.80
2023-03-19T16:45:54.763Z,66.78
2023-03-19T16:48:27.955Z,67.08
2023-03-19T16:50:58.783Z,67.12
2023-03-19T16:53:33.363Z,67.16
2023-03-19T16:56:05.448Z,67.21
2023-03-19T16:58:42.624Z,67.35
2023-03-19T17:01:19.575Z,67.30
2023-03-19T17:03:54.107Z,67.33
2023-03-19T17:06:25.546Z,67.52
2023-03-19T17:08:56.100Z,67.37
2023-03-19T17:11:31.138Z,67.37
2023-03-19T17:14:02.502Z,67.60
2023-03-19T17:16:33.262Z,67.62
2023-03-19T17:19:09.334Z,67.65
2023-03-19T17:21:39.881Z,67.60
2023-03-19T17:24:24.313Z,67.67
2023-03-19T17:26:55.737Z,67.80
2023-03-19T17:29:26.415Z,67.74
2023-03-19T17:32:00.331Z,67.95
2023-03-19T17:34:35.987Z,67.64
2023-03-19T17:37:07.226Z,67.73
2023-03-19T17:39:37.728Z,67.97
2023-03-19T17:42:19.776Z,68.11
2023-03-19T17:44:50.347Z,68.02
2023-03-19T17:47:21.904Z,68.24
2023-03-19T17:49:55.420Z,68.17
2023-03-19T17:52:26.217Z,68.38
2023-03-19T17:54:56.788Z,68.34
2023-03-19T17:57:27.337Z,68.31
2023-03-19T17:59:57.866Z,68.51
2023-03-19T18:02:31.665Z,68.53
2023-03-19T18:05:04.823Z,68.44
2023-03-19T18:07:35.381Z,68.42
2023-03-19T18:10:06.153Z,68.54
2023-03-19T18:12:36.718Z,68.35
2023-03-19T18:15:08.400Z,68.37
2023-03-19T18:17:39.248Z,68.34
2023-03-19T18:20:15.807Z,68.35
2023-03-19T18:22:46.232Z,68.33
2023-03-19T18:25:19.115Z,68.37
2023-03-19T18:27:52.056Z,68.46
2023-03-19T18:30:24.974Z,68.29
2023-03-19T18:32:58.990Z,68.39
2023-03-19T18:35:34.440Z,68.56
2023-03-19T18:38:05.035Z,68.59
2023-03-19T18:40:36.289Z,68.72
2023-03-19T18:43:07.327Z,68.86
2023-03-19T18:45:38.074Z,68.69
2023-03-19T18:48:22.116Z,68.68
2023-03-19T18:50:56.335Z,68.75
2023-03-19T18:53:29.035Z,68.72
2023-03-19T18:56:00.805Z,68.91
2023-03-19T18:58:31.633Z,68.97
2023-03-19T19:01:04.596Z,68.89
2023-03-19T19:03:36.988Z,68.96
2023-03-19T19:06:10.600Z,69.09
2023-03-19T19:08:41.577Z,69.04
2023-03-19T19:11:15.000Z,69.05
2023-03-19T19:13:55.742Z,69.19
2023-03-19T19:16:35.826Z,69.20
2023-03-19T19:19:06.585Z,69.19
2023-03-19T19:21:39.722Z,69.19
2023-03-19T19:24:11.115Z,69.24
2023-03-19T19:26:41.732Z,69.38
2023-03-19T19:29:21.332Z,69.36
2023-03-19T19:31:54.094Z,69.38
2023-03-19T19:34:26.720Z,69.34
2023-03-19T19:37:00.527Z,69.41
2023-03-19T19:39:31.383Z,69.42
2023-03-19T19:42:01.999Z,69.42
2023-03-19T19:44:32.740Z,69.61
2023-03-19T19:47:07.471Z,69.58
2023-03-19T19:49:39.780Z,69.62
2023-03-19T19:52:17.377Z,69.76
2023-03-19T19:54:48.632Z,69.81
2023-03-19T19:57:22.882Z,69.89
2023-03-19T19:59:55.464Z,69.78
2023-03-19T20:02:28.564Z,69.99
2023-03-19T20:04:59.576Z,69.78
2023-03-19T20:07:32.737Z,69.89
2023-03-19T20:10:03.823Z,69.84
2023-03-19T20:12:35.978Z,69.91
2023-03-19T20:15:07.082Z,69.97
2023-03-19T20:17:37.754Z,69.84
2023-03-19T20:20:20.061Z,70.00
2023-03-19T20:22:53.574Z,70.03
2023-03-19T20:25:26.453Z,70.02
2023-03-19T20:27:59.589Z,70.23
2023-03-19T20:30:33.570Z,70.37
2023-03-19T20:33:04.731Z,70.42
2023-03-19T20:35:38.440Z,70.63
2023-03-19T20:38:14.260Z,70.54
2023-03-19T20:40:47.765Z,70.60
2023-03-19T20:43:28.282Z,70.62
2023-03-19T20:46:00.173Z,70.77
2023-03-19T20:48:31.064Z,70.67
2023-03-19T20:51:03.132Z,70.72
2023-03-19T20:53:36.370Z,70.91
2023-03-19T20:56:09.652Z,71.10
2023-03-19T20:58:40.136Z,71.02
2023-03-19T21:01:12.009Z,71.10
2023-03-19T21:03:42.519Z,70.99
2023-03-19T21:06:18.654Z,71.08
2023-03-19T21:08:57.230Z,71.18
2023-03-19T21:11:42.466Z,71.28
2023-03-19T21:14:18.435Z,71.25
2023-03-19T21:16:48.972Z,71.33
2023-03-19T21:19:19.766Z,71.33
2023-03-19T21:21:50.902Z,71.48
2023-03-19T21:24:26.110Z,71.38
2023-03-19T21:26:57.016Z,71.46
2023-03-19T21:29:33.227Z,71.48
2023-03-19T21:32:04.599Z,71.55
2023-03-19T21:34:35.000Z,71.54
2023-03-19T21:37:06.236Z,71.69
2023-03-19T21:39:39.297Z,71.75
2023-03-19T21:42:11.018Z,71.70
2023-03-19T21:44:42.534Z,71.69
2023-03-19T21:47:16.429Z,71.67
2023-03-19T21:49:48.499Z,71.68
2023-03-19T21:52:22.061Z,71.85
2023-03-19T21:54:55.996Z,71.63
2023-03-19T21:57:27.592Z,71.56
2023-03-19T21:59:58.551Z,71.60
2023-03-19T22:02:43.607Z,71.38
2023-03-19T22:05:27.247Z,71.61
2023-03-19T22:07:58.620Z,71.47
2023-03-19T22:10:33.022Z,71.44
2023-03-19T22:13:03.964Z,71.37
2023-03-19T22:15:37.586Z,71.41
2023-03-19T22:18:15.798Z,71.50
2023-03-19T22:20:47.165Z,71.68
2023-03-19T22:23:18.268Z,71.66
2023-03-19T22:25:54.042Z,71.57
2023-03-19T22:28:32.503Z,71.73
2023-03-19T22:31:05.310Z,71.57
2023-03-19T22:33:36.441Z,71.61
2023-03-19T22:36:07.451Z,71.54
2023-03-19T22:38:38.088Z,71.49
2023-03-19T22:41:18.377Z,71.51
2023-03-19T22:43:49.272Z,71.59
2023-03-19T22:46:26.124Z,71.66
2023-03-19T22:48:57.961Z,71.54
2023-03-19T22:51:30.711Z,71.59
2023-03-19T22:54:01.495Z,71.57
2023-03-19T22:56:34.610Z,71.65
2023-03-19T22:59:05.551Z,71.72
2023-03-19T23:01:41.500Z,71.87
2023-03-19T23:04:21.335Z,71.99
2023-03-19T23:06:53.009Z,72.03
2023-03-19T23:09:26.120Z,72.32
2023-03-19T23:12:00.153Z,72.52
2023-03-19T23:14:32.108Z,72.73
2023-03-19T23:17:06.753Z,72.44
2023-03-19T23:19:39.680Z,72.82
2023-03-19T23:22:16.858Z,72.88
2023-03-19T23:24:47.618Z,72.77
2023-03-19T23:27:26.376Z,73.02
2023-03-19T23:29:57.383Z,73.34
2023-03-19T23:32:29.017Z,73.31
2023-03-19T23:35:01.869Z,73.27
2023-03-19T23:37:34.769Z,73.26
2023-03-19T23:40:05.484Z,73.51
2023-03-19T23:42:39.757Z,73.30
2023-03-19T23:45:24.761Z,73.48
2023-03-19T23:47:55.397Z,73.13
2023-03-19T23:50:26.161Z,72.91
2023-03-19T23:52:56.606Z,72.98
2023-03-19T23:55:36.723Z,72.75
2023-03-19T23:58:11.103Z,72.94
